Terminal Aerodrome Forecast
Issued by NWS Raleigh/Durham, NC

Home | Current Version | Previous Version | Text Only | Print | Product List | Glossary On
Versions: 1 2 3 4 5 6 7 8 9 10 11 12 13 14 15 16 17 18 19
000
FTUS42 KRAH 271120
TAFGSO
TAF
KGSO 271120Z 2712/2812 20007KT P6SM SKC
     FM271300 21012KT P6SM SKC
     FM271500 21014G23KT P6SM SCT045 PROB30 2721/2801 23020G32KT 3SM
      TSRA BKN030CB
     FM280100 21005KT P6SM SCT005
      TEMPO 2808/2812 BKN005=

USA.gov is the U.S. government's official web portal to all federal, state and local government web resources and services.